Time;durP1;ratioP1;P1;durP2;ratioP2;P2;SDS_P1;SDS_P2;PMS_P1;PMS_P2;Temp;Humidity;BMP_temperature;BMP_pressure;BME280_temperature;BME280_humidity;BME280_pressure;Samples;Min_cycle;Max_cycle;Signal;HPM_P1;HPM_P2
2022/11/06 00:01:51;;;;;;;12.70;10.57;;;6.90;99.90;;;;;;5095280;28;20463;-59
2022/11/06 00:04:18;;;;;;;12.20;11.00;;;6.90;99.90;;;;;;5095435;28;20793;-58
2022/11/06 00:06:47;;;;;;;13.37;10.80;;;6.90;99.90;;;;;;5095614;28;20867;-58
2022/11/06 00:09:18;;;;;;;14.50;10.90;;;6.90;99.90;;;;;;5095722;28;20508;-59
2022/11/06 00:11:46;;;;;;;16.07;11.70;;;6.90;99.90;;;;;;5095387;28;20477;-59
2022/11/06 00:14:14;;;;;;;14.87;11.13;;;6.90;99.90;;;;;;5095105;28;20479;-59
2022/11/06 00:16:42;;;;;;;15.47;12.63;;;6.90;99.90;;;;;;5095314;28;20481;-59
2022/11/06 00:19:09;;;;;;;16.43;12.00;;;6.90;99.90;;;;;;5095273;28;20866;-59
2022/11/06 00:21:37;;;;;;;14.20;12.60;;;6.90;99.90;;;;;;5095018;28;20451;-59
2022/11/06 00:24:06;;;;;;;13.50;10.80;;;6.90;99.90;;;;;;5095205;28;20543;-59
2022/11/06 00:26:35;;;;;;;14.80;12.40;;;7.10;99.90;;;;;;5095147;28;20459;-59
2022/11/06 00:29:04;;;;;;;15.63;13.00;;;7.00;99.90;;;;;;5094983;28;20448;-59
2022/11/06 00:31:34;;;;;;;13.33;11.17;;;6.90;99.90;;;;;;5095182;28;20451;-59
2022/11/06 00:34:07;;;;;;;15.07;12.10;;;7.00;99.90;;;;;;5095285;28;20856;-59
2022/11/06 00:36:34;;;;;;;16.33;11.57;;;6.90;99.90;;;;;;5094473;28;20451;-59
2022/11/06 00:39:03;;;;;;;15.73;11.10;;;6.90;99.90;;;;;;5094863;28;21018;-59
2022/11/06 00:41:30;;;;;;;15.97;11.93;;;7.00;99.90;;;;;;5095060;28;20831;-59
2022/11/06 00:44:01;;;;;;;12.80;11.30;;;7.10;99.90;;;;;;5094800;28;20439;-58
2022/11/06 00:46:28;;;;;;;15.03;12.10;;;7.10;99.90;;;;;;5094343;28;21036;-59
2022/11/06 00:48:56;;;;;;;16.63;11.90;;;7.10;99.90;;;;;;5094408;28;20822;-59
2022/11/06 00:51:25;;;;;;;15.60;11.57;;;6.90;99.90;;;;;;5094671;28;20454;-59
2022/11/06 00:53:55;;;;;;;15.53;12.07;;;6.90;99.90;;;;;;5094417;28;20479;-58
2022/11/06 00:56:23;;;;;;;13.63;10.87;;;6.90;99.90;;;;;;5094475;28;20495;-59
2022/11/06 00:58:50;;;;;;;15.87;11.33;;;6.90;99.90;;;;;;5094414;28;20933;-59
2022/11/06 01:01:21;;;;;;;12.77;11.40;;;6.80;99.90;;;;;;5094369;28;20447;-59
2022/11/06 01:03:52;;;;;;;16.93;12.53;;;6.90;99.90;;;;;;5094279;28;20788;-59
2022/11/06 01:06:21;;;;;;;17.23;10.93;;;6.90;99.90;;;;;;5094545;28;20474;-59
2022/11/06 01:08:49;;;;;;;15.47;11.40;;;6.80;99.90;;;;;;5094464;28;20546;-59
2022/11/06 01:11:19;;;;;;;12.53;11.30;;;6.90;99.90;;;;;;5093972;28;20457;-58
2022/11/06 01:13:49;;;;;;;13.20;11.37;;;6.90;99.90;;;;;;5094003;28;20479;-60
2022/11/06 01:16:18;;;;;;;15.33;12.40;;;6.80;99.90;;;;;;5094607;28;20459;-59
2022/11/06 01:18:46;;;;;;;16.17;14.47;;;6.80;99.90;;;;;;5094290;28;20534;-58
2022/11/06 01:21:16;;;;;;;12.40;11.20;;;6.80;99.90;;;;;;5094106;28;20481;-58
2022/11/06 01:23:44;;;;;;;15.37;11.57;;;6.80;99.90;;;;;;5094057;28;20446;-59
2022/11/06 01:26:13;;;;;;;18.33;12.00;;;6.70;99.90;;;;;;5094373;28;20467;-59
2022/11/06 01:28:41;;;;;;;12.10;10.90;;;6.70;99.90;;;;;;5093904;28;20454;-59
2022/11/06 01:31:13;;;;;;;13.30;11.93;;;6.70;99.90;;;;;;5094076;28;20453;-58
2022/11/06 01:33:42;;;;;;;15.33;12.00;;;6.60;99.90;;;;;;5093704;28;20902;-59
2022/11/06 01:36:10;;;;;;;16.30;10.77;;;6.60;99.90;;;;;;5093873;28;20464;-59
2022/11/06 01:38:40;;;;;;;12.93;11.33;;;6.60;99.90;;;;;;5093887;28;20461;-59
2022/11/06 01:41:08;;;;;;;14.57;12.60;;;6.60;99.90;;;;;;5093894;28;20802;-59
2022/11/06 01:43:47;;;;;;;15.20;12.47;;;6.60;99.90;;;;;;5093854;28;20447;-59
2022/11/06 01:46:15;;;;;;;16.10;12.67;;;6.60;99.90;;;;;;5093615;28;20490;-59
2022/11/06 01:48:47;;;;;;;15.03;12.07;;;6.50;99.90;;;;;;5093272;28;20536;-59
2022/11/06 01:51:15;;;;;;;16.50;12.33;;;6.50;99.90;;;;;;5093838;28;20432;-59
2022/11/06 01:53:42;;;;;;;14.70;13.23;;;6.50;99.90;;;;;;5093299;28;20451;-59
2022/11/06 01:56:11;;;;;;;14.70;12.10;;;6.60;99.90;;;;;;5093623;28;20471;-59
2022/11/06 01:58:42;;;;;;;13.70;11.90;;;6.50;99.90;;;;;;5093618;28;20443;-59
2022/11/06 02:01:09;;;;;;;12.27;11.07;;;6.50;99.90;;;;;;5093213;28;20431;-59
2022/11/06 02:03:37;;;;;;;26.17;13.80;;;6.30;99.90;;;;;;5092778;28;20490;-59
2022/11/06 02:06:08;;;;;;;15.37;13.10;;;6.30;99.90;;;;;;5093278;28;20870;-59
2022/11/06 02:08:35;;;;;;;13.97;12.00;;;6.30;99.90;;;;;;5093374;28;20487;-59
2022/11/06 02:11:02;;;;;;;14.17;12.07;;;6.40;99.90;;;;;;5093449;28;20448;-59
2022/11/06 02:13:41;;;;;;;14.70;13.10;;;6.30;99.90;;;;;;5093523;28;20454;-59
2022/11/06 02:16:15;;;;;;;18.87;13.37;;;6.30;99.90;;;;;;5093447;28;20451;-59
2022/11/06 02:18:55;;;;;;;16.50;12.70;;;6.20;99.90;;;;;;5093597;28;20428;-58
2022/11/06 02:21:48;;;;;;;17.50;13.73;;;6.30;99.90;;;;;;5093544;28;20446;-58
2022/11/06 02:24:36;;;;;;;16.10;13.53;;;6.30;99.90;;;;;;5093010;28;20886;-58
2022/11/06 02:27:10;;;;;;;16.60;12.10;;;6.40;99.90;;;;;;5092922;28;20449;-59
2022/11/06 02:29:47;;;;;;;14.93;12.27;;;6.20;99.90;;;;;;5093604;28;20473;-59
2022/11/06 02:32:20;;;;;;;15.70;12.47;;;6.20;99.90;;;;;;5093201;28;20964;-59
2022/11/06 02:34:49;;;;;;;14.70;13.07;;;6.00;99.90;;;;;;5093138;28;20491;-58
2022/11/06 02:37:20;;;;;;;15.67;12.50;;;6.00;99.90;;;;;;5093257;28;20447;-59
2022/11/06 02:39:51;;;;;;;15.17;13.57;;;6.20;99.90;;;;;;5093538;28;20455;-58
2022/11/06 02:42:21;;;;;;;15.07;11.13;;;6.20;99.90;;;;;;5093365;28;20435;-59
2022/11/06 02:44:51;;;;;;;15.70;13.90;;;6.20;99.90;;;;;;5092913;28;20471;-59
2022/11/06 02:47:22;;;;;;;13.60;11.67;;;6.20;99.90;;;;;;5092919;28;20487;-59
2022/11/06 02:49:54;;;;;;;15.80;13.10;;;6.10;99.90;;;;;;5093034;28;20434;-59
2022/11/06 02:52:28;;;;;;;19.87;13.80;;;6.10;99.90;;;;;;5093251;28;20781;-59
2022/11/06 02:55:00;;;;;;;17.70;13.67;;;6.10;99.90;;;;;;5092629;28;21003;-59
2022/11/06 02:57:34;;;;;;;18.63;12.73;;;6.10;99.90;;;;;;5093090;28;20527;-59
2022/11/06 03:00:06;;;;;;;17.60;13.60;;;6.10;99.90;;;;;;5093151;28;20427;-59
2022/11/06 03:02:39;;;;;;;16.63;13.10;;;6.00;99.90;;;;;;5093077;28;20436;-59
2022/11/06 03:05:12;;;;;;;15.93;13.10;;;6.00;99.90;;;;;;5092965;28;20470;-59
2022/11/06 03:07:44;;;;;;;17.43;13.00;;;5.90;99.90;;;;;;5092896;28;20428;-59
2022/11/06 03:10:12;;;;;;;14.30;11.30;;;5.70;99.90;;;;;;5092922;28;20432;-59
2022/11/06 03:12:50;;;;;;;14.20;12.20;;;5.70;99.90;;;;;;5092636;28;21005;-59
2022/11/06 03:15:26;;;;;;;14.20;12.47;;;5.70;99.90;;;;;;5095289;28;20483;-59
2022/11/06 03:17:59;;;;;;;15.70;12.67;;;5.70;99.90;;;;;;5096571;28;20423;-59
2022/11/06 03:20:34;;;;;;;14.10;11.70;;;5.80;99.90;;;;;;5096452;28;20789;-59
2022/11/06 03:23:09;;;;;;;14.30;12.10;;;5.70;99.90;;;;;;5096216;28;20427;-59
2022/11/06 03:25:44;;;;;;;17.67;11.80;;;5.60;99.90;;;;;;5096454;28;20463;-59
2022/11/06 03:28:19;;;;;;;16.00;12.60;;;5.60;99.90;;;;;;5096466;28;20776;-59
2022/11/06 03:30:52;;;;;;;16.10;13.13;;;5.60;99.90;;;;;;5095961;28;20438;-58
2022/11/06 03:33:23;;;;;;;16.83;13.80;;;5.50;99.90;;;;;;5095811;28;20933;-62
2022/11/06 03:35:55;;;;;;;12.90;11.47;;;5.50;99.90;;;;;;5095813;28;20485;-59
2022/11/06 03:38:26;;;;;;;14.50;11.63;;;5.40;99.90;;;;;;5096273;28;20455;-59
2022/11/06 03:41:00;;;;;;;13.90;12.33;;;5.50;99.90;;;;;;5096126;28;20467;-59
2022/11/06 03:43:34;;;;;;;16.07;12.70;;;5.60;99.90;;;;;;5096016;28;20894;-59
2022/11/06 03:46:04;;;;;;;12.40;11.10;;;5.50;99.90;;;;;;5095786;28;20455;-59
2022/11/06 03:48:34;;;;;;;12.70;11.37;;;5.40;99.90;;;;;;5095756;28;20969;-59
2022/11/06 03:51:05;;;;;;;14.13;12.67;;;5.40;99.90;;;;;;5095942;28;20448;-59
2022/11/06 03:53:38;;;;;;;13.40;11.87;;;5.40;99.90;;;;;;5095907;28;20497;-59
2022/11/06 03:56:09;;;;;;;15.00;13.50;;;5.20;99.90;;;;;;5095391;28;20494;-58
2022/11/06 03:58:43;;;;;;;14.90;12.70;;;5.30;99.90;;;;;;5095765;28;20428;-59
2022/11/06 04:01:12;;;;;;;17.53;13.40;;;5.10;99.90;;;;;;5095566;28;20510;-59
2022/11/06 04:03:45;;;;;;;11.97;10.77;;;5.20;99.90;;;;;;5095638;28;20451;-59
2022/11/06 04:06:17;;;;;;;17.30;12.40;;;5.30;99.90;;;;;;5095189;28;21037;-59
2022/11/06 04:14:34;;;;;;;12.60;9.13;;;5.60;99.90;;;;;;5052745;28;20488;-58
2022/11/06 04:17:04;;;;;;;15.27;11.43;;;5.60;99.90;;;;;;5077560;28;20446;-59
2022/11/06 04:19:32;;;;;;;19.00;11.77;;;5.60;99.90;;;;;;5095424;28;20482;-59
2022/11/06 04:22:29;;;;;;;11.57;10.40;;;5.60;99.90;;;;;;5095065;28;20957;-59
2022/11/06 04:28:13;;;;;;;11.00;9.90;;;5.60;99.90;;;;;;5095248;28;20415;-59
2022/11/06 04:31:02;;;;;;;15.07;11.33;;;5.50;99.90;;;;;;5095015;28;20898;-58
2022/11/06 04:33:36;;;;;;;12.53;10.03;;;5.40;99.90;;;;;;5095245;28;20430;-59
2022/11/06 04:36:11;;;;;;;15.50;10.50;;;5.40;99.90;;;;;;5094967;28;20486;-59
2022/11/06 04:38:48;;;;;;;14.37;10.87;;;5.50;99.90;;;;;;5094960;28;20929;-59
2022/11/06 04:41:20;;;;;;;12.40;10.57;;;5.50;99.90;;;;;;5094956;28;20503;-59
2022/11/06 04:43:52;;;;;;;16.80;9.80;;;5.50;99.90;;;;;;5094753;28;20431;-60
2022/11/06 04:46:24;;;;;;;14.07;10.97;;;5.50;99.90;;;;;;5095050;28;20653;-59
2022/11/06 04:48:53;;;;;;;13.87;11.87;;;5.30;99.90;;;;;;5094450;28;20481;-58
2022/11/06 04:51:23;;;;;;;12.50;11.20;;;5.30;99.90;;;;;;5094492;28;20490;-59
2022/11/06 04:53:52;;;;;;;11.67;10.47;;;5.30;99.90;;;;;;5094593;28;20427;-59
2022/11/06 04:56:23;;;;;;;12.00;10.50;;;5.30;99.90;;;;;;5094212;28;20999;-59
2022/11/06 04:58:50;;;;;;;10.90;9.83;;;5.30;99.90;;;;;;5094378;28;20920;-59
2022/11/06 05:01:17;;;;;;;12.53;10.90;;;5.30;99.90;;;;;;5094163;28;20937;-59
2022/11/06 05:03:46;;;;;;;13.70;11.07;;;5.20;99.90;;;;;;5094386;28;20447;-59
2022/11/06 05:06:13;;;;;;;13.33;10.70;;;5.00;99.90;;;;;;5094169;28;20468;-59
2022/11/06 05:08:41;;;;;;;11.47;10.33;;;4.90;99.90;;;;;;5094356;28;20456;-59
2022/11/06 05:11:08;;;;;;;11.97;10.73;;;4.90;99.90;;;;;;5093889;28;20450;-59
2022/11/06 05:13:36;;;;;;;12.70;11.40;;;4.90;99.90;;;;;;5094069;28;20546;-59
2022/11/06 05:16:03;;;;;;;12.70;10.53;;;4.90;99.90;;;;;;5094236;28;20556;-59
2022/11/06 05:18:30;;;;;;;11.37;10.17;;;4.90;99.90;;;;;;5094072;28;20479;-59
2022/11/06 05:23:45;;;;;;;14.07;11.03;;;5.10;99.90;;;;;;5094298;28;20402;-59
2022/11/06 05:26:13;;;;;;;14.57;10.43;;;5.10;99.90;;;;;;5093709;28;20983;-59
2022/11/06 05:28:40;;;;;;;10.23;9.03;;;5.10;99.90;;;;;;5093803;28;20444;-59
2022/11/06 05:31:07;;;;;;;11.73;9.17;;;5.10;99.90;;;;;;5093927;28;20799;-59
2022/11/06 05:33:34;;;;;;;10.20;9.10;;;5.20;99.90;;;;;;5093893;28;20457;-59
2022/11/06 05:36:04;;;;;;;11.27;9.43;;;5.00;99.90;;;;;;5093154;28;20487;-59
2022/11/06 05:38:32;;;;;;;8.37;7.50;;;5.00;99.90;;;;;;5093721;28;20989;-59
2022/11/06 05:40:59;;;;;;;11.23;8.63;;;4.90;99.90;;;;;;5093566;28;21014;-59
2022/11/06 05:43:26;;;;;;;11.93;8.90;;;4.90;99.90;;;;;;5093921;28;20443;-59
2022/11/06 05:45:53;;;;;;;10.60;9.07;;;4.90;99.90;;;;;;5093917;28;20460;-59
2022/11/06 05:48:20;;;;;;;10.40;8.80;;;4.80;99.90;;;;;;5093240;28;20490;-59
2022/11/06 05:50:47;;;;;;;10.87;8.97;;;4.70;99.90;;;;;;5093723;28;20942;-59
2022/11/06 05:53:16;;;;;;;9.20;8.20;;;4.80;99.90;;;;;;5093747;28;20447;-59
2022/11/06 05:55:45;;;;;;;12.00;9.50;;;4.80;99.90;;;;;;5093757;28;20483;-59
2022/11/06 05:58:12;;;;;;;9.87;8.87;;;4.90;99.90;;;;;;5093490;28;20882;-59
2022/11/06 06:00:39;;;;;;;9.70;8.73;;;4.90;99.90;;;;;;5093434;28;20482;-59
2022/11/06 06:03:06;;;;;;;11.67;8.60;;;5.00;99.90;;;;;;5093862;28;20444;-59
2022/11/06 06:05:33;;;;;;;12.17;9.90;;;4.90;99.90;;;;;;5093618;28;20468;-60
2022/11/06 06:08:00;;;;;;;10.17;9.10;;;5.00;99.90;;;;;;5093483;28;20455;-59
2022/11/06 06:10:29;;;;;;;9.57;8.50;;;4.90;99.90;;;;;;5093738;28;20444;-59
2022/11/06 06:12:56;;;;;;;10.53;9.40;;;5.00;99.90;;;;;;5093501;28;20447;-59
2022/11/06 06:15:23;;;;;;;10.13;8.97;;;4.90;99.90;;;;;;5093162;28;20479;-59
2022/11/06 06:17:50;;;;;;;9.67;8.67;;;4.80;99.90;;;;;;5093507;28;20538;-59
2022/11/06 06:20:17;;;;;;;9.03;8.33;;;4.80;99.90;;;;;;5093394;28;20454;-58
2022/11/06 06:22:53;;;;;;;10.07;9.00;;;4.80;99.90;;;;;;5093579;28;20451;-59
2022/11/06 06:25:21;;;;;;;10.17;8.73;;;4.90;99.90;;;;;;5093689;28;20458;-59
2022/11/06 06:27:49;;;;;;;9.63;8.70;;;4.80;99.90;;;;;;5093067;28;20451;-59
2022/11/06 06:30:16;;;;;;;10.50;8.97;;;4.90;99.90;;;;;;5093142;28;20942;-59
2022/11/06 06:32:44;;;;;;;10.40;8.20;;;5.00;99.90;;;;;;5092968;28;20530;-59
2022/11/06 06:35:11;;;;;;;10.33;8.63;;;5.00;99.90;;;;;;5093313;28;20483;-60
2022/11/06 06:37:38;;;;;;;8.83;8.00;;;5.00;99.90;;;;;;5093121;28;20457;-59
2022/11/06 06:40:07;;;;;;;10.83;9.00;;;5.10;99.90;;;;;;5093273;28;20847;-59
2022/11/06 06:42:34;;;;;;;11.50;9.60;;;5.00;99.90;;;;;;5092922;28;20870;-59
2022/11/06 06:45:03;;;;;;;11.53;9.30;;;5.00;99.90;;;;;;5093041;28;20467;-59
2022/11/06 06:47:30;;;;;;;10.47;9.07;;;5.00;99.90;;;;;;5093033;28;20562;-59
2022/11/06 06:49:57;;;;;;;10.63;9.60;;;5.10;99.90;;;;;;5096909;28;20535;-59
2022/11/06 06:52:24;;;;;;;9.97;8.97;;;5.10;99.90;;;;;;5096645;28;20451;-59
2022/11/06 06:54:51;;;;;;;9.43;8.53;;;5.10;99.90;;;;;;5096908;28;20467;-59
2022/11/06 06:57:18;;;;;;;10.77;9.47;;;5.20;99.90;;;;;;5096564;28;20475;-59
2022/11/06 06:59:45;;;;;;;9.50;8.60;;;5.30;99.90;;;;;;5096861;28;20444;-60
2022/11/06 07:02:14;;;;;;;10.77;8.97;;;5.30;99.90;;;;;;5096675;28;20447;-59
2022/11/06 07:04:41;;;;;;;9.23;8.30;;;5.30;99.90;;;;;;5096539;28;20469;-59
2022/11/06 07:07:08;;;;;;;11.30;8.60;;;5.40;99.90;;;;;;5096733;28;20450;-59
2022/11/06 07:09:36;;;;;;;9.53;8.53;;;5.40;99.90;;;;;;5096880;28;20451;-59
2022/11/06 07:12:03;;;;;;;12.67;7.70;;;5.40;99.90;;;;;;5096380;28;20443;-59
2022/11/06 07:14:30;;;;;;;9.13;8.20;;;5.40;99.90;;;;;;5096495;28;20463;-59
2022/11/06 07:16:57;;;;;;;9.63;8.70;;;5.40;99.90;;;;;;5096169;28;20981;-59
2022/11/06 07:19:26;;;;;;;9.30;8.47;;;5.40;99.90;;;;;;5096614;28;20446;-59
2022/11/06 07:21:54;;;;;;;9.77;8.90;;;5.50;99.90;;;;;;5096263;28;20930;-59
2022/11/06 07:24:21;;;;;;;9.77;8.87;;;5.40;99.90;;;;;;5095923;28;20447;-59
2022/11/06 07:26:48;;;;;;;9.40;8.50;;;5.30;99.90;;;;;;5096127;28;20443;-59
2022/11/06 07:29:15;;;;;;;8.60;7.70;;;5.30;99.90;;;;;;5096482;28;20459;-59
2022/11/06 07:31:42;;;;;;;11.10;8.43;;;5.30;99.90;;;;;;5096273;28;20451;-59
2022/11/06 07:34:10;;;;;;;10.07;9.10;;;5.20;99.90;;;;;;5095941;28;20938;-59
2022/11/06 07:36:38;;;;;;;9.80;8.90;;;5.30;99.90;;;;;;5095933;28;20479;-60
2022/11/06 07:39:05;;;;;;;11.30;9.37;;;5.30;99.90;;;;;;5096253;28;20462;-60
2022/11/06 07:41:32;;;;;;;9.70;8.70;;;5.30;99.90;;;;;;5095746;28;20783;-60
2022/11/06 07:44:00;;;;;;;11.90;8.60;;;5.30;99.90;;;;;;5096155;28;20801;-59
2022/11/06 07:46:27;;;;;;;13.43;9.13;;;5.30;99.90;;;;;;5095635;28;20464;-59
2022/11/06 07:48:54;;;;;;;12.17;8.90;;;5.10;99.90;;;;;;5095637;28;20842;-59
2022/11/06 07:51:22;;;;;;;9.43;8.50;;;5.20;99.90;;;;;;5095714;28;20510;-59
2022/11/06 07:53:50;;;;;;;10.07;9.00;;;5.20;99.90;;;;;;5095485;28;20444;-59
2022/11/06 07:56:17;;;;;;;12.23;8.97;;;5.30;99.90;;;;;;5095693;28;20491;-59
2022/11/06 07:58:45;;;;;;;10.27;9.10;;;5.30;99.90;;;;;;5095806;28;20447;-60
2022/11/06 08:01:16;;;;;;;10.40;9.30;;;5.40;99.90;;;;;;5094917;28;20478;-60
2022/11/06 08:03:43;;;;;;;11.60;9.57;;;5.40;99.90;;;;;;5095714;28;20512;-60
2022/11/06 08:06:11;;;;;;;11.60;9.20;;;5.40;99.90;;;;;;5095388;28;20936;-59
2022/11/06 08:08:38;;;;;;;11.37;10.23;;;5.50;99.90;;;;;;5095709;28;20463;-59
2022/11/06 08:11:08;;;;;;;11.03;9.93;;;5.40;99.90;;;;;;5095454;28;20523;-59
2022/11/06 08:13:35;;;;;;;10.27;9.27;;;5.40;99.90;;;;;;5095355;28;20457;-59
2022/11/06 08:16:06;;;;;;;11.20;9.30;;;5.40;99.90;;;;;;5095013;28;20487;-59
2022/11/06 08:18:34;;;;;;;12.50;9.63;;;5.50;99.90;;;;;;5095028;28;20482;-59
2022/11/06 08:21:01;;;;;;;10.27;9.20;;;5.50;99.90;;;;;;5095000;28;20931;-59
2022/11/06 08:23:28;;;;;;;10.83;9.73;;;5.60;99.90;;;;;;5095008;28;20450;-59
2022/11/06 08:25:56;;;;;;;9.73;8.70;;;5.70;99.90;;;;;;5094805;28;20471;-60
2022/11/06 08:28:25;;;;;;;13.10;10.47;;;5.90;99.90;;;;;;5094707;28;20444;-59
2022/11/06 08:30:53;;;;;;;11.53;8.23;;;6.00;99.90;;;;;;5095231;28;20453;-59
2022/11/06 08:33:21;;;;;;;12.20;8.33;;;6.20;99.90;;;;;;5095127;28;20456;-59
2022/11/06 08:35:49;;;;;;;9.90;8.57;;;6.20;99.90;;;;;;5094582;28;20575;-59
2022/11/06 08:38:16;;;;;;;7.90;7.20;;;6.30;99.90;;;;;;5095076;28;20487;-59
2022/11/06 08:40:43;;;;;;;9.40;7.90;;;6.20;99.90;;;;;;5095191;28;20518;-59
2022/11/06 08:43:11;;;;;;;8.43;7.70;;;6.30;99.90;;;;;;5094655;28;20449;-59
2022/11/06 08:45:40;;;;;;;10.43;8.43;;;6.30;99.90;;;;;;5094778;28;20470;-59
2022/11/06 08:48:11;;;;;;;8.87;7.97;;;6.40;99.90;;;;;;5094080;28;20558;-59
2022/11/06 08:50:42;;;;;;;7.97;7.17;;;6.30;99.90;;;;;;5094745;28;20435;-59
2022/11/06 08:53:10;;;;;;;7.33;6.60;;;6.30;99.90;;;;;;5094374;28;20530;-59
2022/11/06 08:55:39;;;;;;;8.30;7.60;;;6.20;99.90;;;;;;5094534;28;20525;-59
2022/11/06 08:58:07;;;;;;;9.77;7.07;;;6.20;99.90;;;;;;5094436;28;20452;-59
2022/11/06 09:00:35;;;;;;;10.23;7.80;;;6.30;99.90;;;;;;5094607;28;20505;-60
2022/11/06 09:03:06;;;;;;;7.63;6.97;;;6.40;99.90;;;;;;5094274;28;20969;-60
2022/11/06 09:05:33;;;;;;;9.40;7.33;;;6.50;99.90;;;;;;5094496;28;20465;-60
2022/11/06 09:08:01;;;;;;;11.43;7.03;;;6.50;99.90;;;;;;5094422;28;20459;-60
2022/11/06 09:10:28;;;;;;;8.43;7.53;;;6.60;99.90;;;;;;5094649;28;20427;-60
2022/11/06 09:12:58;;;;;;;9.40;7.77;;;6.60;99.90;;;;;;5094479;28;20447;-59
2022/11/06 09:15:25;;;;;;;9.23;8.30;;;6.60;99.90;;;;;;5093938;28;20969;-60
2022/11/06 09:17:53;;;;;;;8.70;6.93;;;6.80;99.90;;;;;;5094173;28;20483;-59
2022/11/06 09:20:23;;;;;;;9.73;8.70;;;7.00;99.90;;;;;;5094310;28;20501;-60
2022/11/06 09:22:51;;;;;;;8.83;7.87;;;7.20;99.90;;;;;;5093958;28;20929;-60
2022/11/06 09:25:18;;;;;;;9.13;8.17;;;7.30;99.90;;;;;;5093880;28;20467;-60
2022/11/06 09:27:47;;;;;;;9.17;7.43;;;7.30;99.90;;;;;;5093853;28;20483;-60
2022/11/06 09:30:17;;;;;;;9.17;8.03;;;7.40;99.90;;;;;;5094032;28;20513;-60
2022/11/06 09:32:48;;;;;;;10.60;8.27;;;7.50;99.90;;;;;;5093910;28;20451;-60
2022/11/06 09:35:16;;;;;;;9.47;7.77;;;7.60;99.90;;;;;;5093523;28;20471;-61
2022/11/06 09:37:44;;;;;;;8.83;7.93;;;7.60;99.90;;;;;;5093818;28;20566;-60
2022/11/06 09:40:20;;;;;;;8.13;7.33;;;7.80;99.90;;;;;;5093583;28;20463;-60
2022/11/06 09:42:56;;;;;;;9.87;7.90;;;8.00;99.90;;;;;;5093439;28;20910;-59
2022/11/06 09:45:26;;;;;;;7.90;7.13;;;8.10;99.90;;;;;;5093493;28;21003;-59
2022/11/06 09:48:00;;;;;;;8.70;6.93;;;8.20;99.90;;;;;;5093711;28;20830;-62
2022/11/06 09:50:32;;;;;;;7.97;7.17;;;8.30;99.90;;;;;;5094016;28;20836;-61
2022/11/06 09:53:08;;;;;;;8.00;6.77;;;8.40;99.90;;;;;;5093779;28;20427;-60
2022/11/06 09:55:40;;;;;;;9.43;7.17;;;8.50;99.90;;;;;;5093667;28;20467;-60
2022/11/06 09:58:14;;;;;;;8.87;7.97;;;8.70;99.90;;;;;;5093602;28;20467;-60
2022/11/06 10:00:42;;;;;;;9.07;7.33;;;8.60;99.90;;;;;;5093470;28;20428;-60
2022/11/06 10:03:17;;;;;;;8.57;7.67;;;8.80;99.90;;;;;;5093623;28;20457;-60
2022/11/06 10:05:46;;;;;;;8.23;7.20;;;8.90;99.90;;;;;;5093096;28;20506;-60
2022/11/06 10:08:20;;;;;;;7.90;7.10;;;9.00;99.90;;;;;;5093445;28;20447;-59
2022/11/06 10:10:54;;;;;;;10.43;7.57;;;9.10;99.90;;;;;;5093257;28;20909;-60
2022/11/06 10:13:39;;;;;;;7.90;7.10;;;9.30;99.90;;;;;;5093705;28;20504;-60
2022/11/06 10:16:14;;;;;;;6.90;6.30;;;9.50;99.90;;;;;;5093448;28;20474;-59
2022/11/06 10:18:50;;;;;;;7.77;6.97;;;9.60;99.90;;;;;;5093422;28;20434;-60
2022/11/06 10:21:24;;;;;;;8.17;6.63;;;9.60;99.90;;;;;;5093476;28;20462;-59
2022/11/06 10:23:56;;;;;;;7.47;6.70;;;9.60;99.90;;;;;;5095754;28;20795;-60
2022/11/06 10:26:35;;;;;;;7.50;6.80;;;9.90;99.90;;;;;;5097580;28;20466;-61
2022/11/06 10:29:33;;;;;;;7.37;6.67;;;10.30;99.90;;;;;;5097249;28;20434;-60
2022/11/06 10:32:16;;;;;;;7.13;6.30;;;10.90;99.90;;;;;;5097181;28;20956;-59
2022/11/06 10:34:46;;;;;;;7.30;6.50;;;11.50;99.90;;;;;;5097146;28;20473;-58
2022/11/06 10:37:18;;;;;;;8.40;6.97;;;12.00;99.90;;;;;;5097619;28;20479;-59
2022/11/06 10:39:48;;;;;;;9.30;7.10;;;12.90;99.90;;;;;;5097434;28;20537;-59
2022/11/06 10:42:17;;;;;;;7.00;6.30;;;13.20;99.90;;;;;;5097247;28;20453;-60
2022/11/06 10:44:49;;;;;;;9.97;7.73;;;13.00;99.90;;;;;;5097037;28;21080;-59
2022/11/06 10:47:20;;;;;;;8.23;7.20;;;13.60;99.90;;;;;;5096944;28;20475;-59
2022/11/06 10:49:50;;;;;;;7.17;6.13;;;13.60;99.90;;;;;;5097170;28;20447;-59
2022/11/06 10:52:35;;;;;;;7.33;6.63;;;13.70;99.90;;;;;;5097083;28;20443;-60
2022/11/06 10:55:21;;;;;;;7.63;6.83;;;13.40;99.90;;;;;;5096645;28;20828;-61
2022/11/06 10:57:53;;;;;;;12.27;6.07;;;13.40;99.90;;;;;;5096872;28;20493;-59
2022/11/06 11:00:20;;;;;;;8.83;7.03;;;12.90;99.90;;;;;;5096550;28;20443;-59
2022/11/06 11:02:51;;;;;;;8.80;6.60;;;12.70;99.90;;;;;;5096879;28;20539;-59
2022/11/06 11:05:21;;;;;;;8.60;7.73;;;12.40;99.90;;;;;;5096513;28;20467;-59
2022/11/06 11:07:50;;;;;;;9.23;8.33;;;12.10;99.90;;;;;;5096706;28;20913;-59
2022/11/06 11:10:30;;;;;;;8.27;7.47;;;11.80;99.90;;;;;;5096364;28;20478;-59
2022/11/06 11:13:00;;;;;;;10.53;8.10;;;11.80;99.90;;;;;;5096621;28;20440;-59
2022/11/06 11:15:32;;;;;;;10.73;9.63;;;11.50;99.90;;;;;;5096478;28;20467;-59
2022/11/06 11:18:16;;;;;;;9.70;8.10;;;11.50;99.90;;;;;;5096202;28;20578;-59
2022/11/06 11:20:45;;;;;;;8.50;7.47;;;11.70;99.90;;;;;;5096392;28;20511;-59
2022/11/06 11:23:18;;;;;;;8.63;7.03;;;12.00;99.90;;;;;;5096315;28;20446;-58
2022/11/06 11:25:48;;;;;;;7.90;7.10;;;12.10;99.90;;;;;;5096139;28;20467;-58
2022/11/06 11:28:25;;;;;;;6.77;6.10;;;12.50;99.90;;;;;;5096270;28;20523;-58
2022/11/06 11:30:55;;;;;;;5.40;4.90;;;12.80;99.90;;;;;;5096337;28;20538;-59
2022/11/06 11:33:25;;;;;;;5.33;4.83;;;13.10;99.90;;;;;;5096046;28;20458;-59
2022/11/06 11:35:54;;;;;;;4.83;4.40;;;12.80;99.90;;;;;;5094984;28;20463;-59
2022/11/06 11:38:21;;;;;;;5.47;4.97;;;12.80;99.90;;;;;;5095724;28;20479;-59
2022/11/06 11:40:50;;;;;;;6.00;5.50;;;13.10;99.90;;;;;;5096220;28;20473;-59
2022/11/06 11:43:27;;;;;;;4.87;4.40;;;13.30;99.90;;;;;;5095753;28;20543;-59
2022/11/06 11:46:19;;;;;;;6.60;4.80;;;12.70;99.90;;;;;;5096064;28;20851;-59
2022/11/06 11:48:48;;;;;;;4.93;4.33;;;12.60;99.90;;;;;;5080848;28;21007;-59
2022/11/06 11:51:27;;;;;;;6.00;4.63;;;12.50;99.90;;;;;;5096052;28;20444;-59
2022/11/06 11:53:56;;;;;;;5.27;4.53;;;12.70;99.90;;;;;;5095668;28;20427;-59
2022/11/06 11:56:27;;;;;;;5.10;4.60;;;12.80;99.90;;;;;;5095470;28;20470;-59
2022/11/06 11:58:57;;;;;;;9.03;4.50;;;12.90;99.90;;;;;;5095905;28;20463;-59
2022/11/06 12:01:35;;;;;;;5.23;4.67;;;13.00;99.90;;;;;;5095658;28;20443;-59
2022/11/06 12:04:13;;;;;;;4.70;4.30;;;13.20;99.90;;;;;;5095502;28;20424;-59
2022/11/06 12:06:51;;;;;;;6.50;4.83;;;13.00;99.90;;;;;;5095702;28;20775;-59
2022/11/06 12:09:18;;;;;;;5.07;4.43;;;13.00;99.90;;;;;;5095166;28;21017;-59
2022/11/06 12:11:48;;;;;;;5.40;4.97;;;12.90;99.90;;;;;;5095271;28;20447;-60
2022/11/06 12:14:30;;;;;;;4.80;4.23;;;12.50;99.90;;;;;;5095440;28;20447;-59
2022/11/06 12:17:02;;;;;;;5.40;4.90;;;12.70;99.90;;;;;;5095510;28;20468;-59
2022/11/06 12:19:32;;;;;;;6.53;5.60;;;13.00;99.90;;;;;;5095457;28;20431;-59
2022/11/06 12:22:05;;;;;;;7.03;4.97;;;13.10;99.90;;;;;;5095045;28;20454;-59
2022/11/06 12:24:39;;;;;;;6.20;4.93;;;13.00;99.90;;;;;;5095132;28;20467;-59
2022/11/06 12:27:12;;;;;;;5.90;5.30;;;12.80;99.90;;;;;;5095262;28;20432;-59
2022/11/06 12:29:43;;;;;;;5.43;4.83;;;12.70;99.90;;;;;;5094745;28;20431;-59
2022/11/06 12:32:22;;;;;;;5.53;4.83;;;12.30;99.90;;;;;;5095124;28;20428;-59
2022/11/06 12:34:54;;;;;;;5.27;4.77;;;12.20;99.90;;;;;;5094987;28;20860;-59
2022/11/06 12:37:28;;;;;;;6.80;5.70;;;12.00;99.90;;;;;;5095097;28;20467;-58
2022/11/06 12:40:02;;;;;;;5.50;4.80;;;11.80;99.90;;;;;;5094772;28;20870;-59
2022/11/06 12:42:33;;;;;;;6.50;5.90;;;11.80;99.90;;;;;;5094937;28;20793;-59
2022/11/06 12:45:01;;;;;;;7.27;6.60;;;11.70;99.90;;;;;;5094612;28;20463;-59
2022/11/06 12:47:42;;;;;;;6.30;5.70;;;11.60;99.90;;;;;;5094390;28;20510;-59
2022/11/06 12:50:30;;;;;;;5.33;4.83;;;11.60;99.90;;;;;;5094884;28;20474;-59
2022/11/06 12:53:35;;;;;;;5.73;5.10;;;11.50;99.90;;;;;;5094919;28;20782;-59
2022/11/06 12:56:15;;;;;;;5.93;5.43;;;11.50;99.90;;;;;;5088065;28;20463;-58
2022/11/06 12:59:00;;;;;;;8.40;6.77;;;11.50;99.90;;;;;;5094383;28;20732;-58
2022/11/06 13:01:41;;;;;;;6.97;5.70;;;11.50;99.90;;;;;;5094481;28;20458;-59
2022/11/06 13:04:23;;;;;;;7.23;6.40;;;11.30;99.90;;;;;;5094184;28;20435;-59
2022/11/06 13:07:18;;;;;;;5.50;5.00;;;11.40;99.90;;;;;;5094204;28;20894;-59
2022/11/06 13:09:54;;;;;;;6.57;5.60;;;11.60;99.90;;;;;;5088181;28;20534;-59
2022/11/06 13:12:26;;;;;;;5.87;5.37;;;11.60;99.90;;;;;;5094408;28;20774;-59
2022/11/06 13:15:08;;;;;;;6.30;5.70;;;11.70;99.90;;;;;;5094275;28;20459;-59
2022/11/06 13:17:41;;;;;;;9.97;5.77;;;12.00;99.90;;;;;;5094028;28;20465;-59